sensor_id;sensor_type;location;lat;lon;timestamp;temperature;humidity
1812;DHT22;904;47.814;11.134;2023-03-17T00:00:31;3.30;78.00
1812;DHT22;904;47.814;11.134;2023-03-17T00:02:59;3.30;78.00
1812;DHT22;904;47.814;11.134;2023-03-17T00:05:30;3.30;77.80
1812;DHT22;904;47.814;11.134;2023-03-17T00:08:12;3.20;77.90
1812;DHT22;904;47.814;11.134;2023-03-17T00:10:45;3.20;77.60
1812;DHT22;904;47.814;11.134;2023-03-17T00:13:22;3.20;77.20
1812;DHT22;904;47.814;11.134;2023-03-17T00:15:55;3.20;77.60
1812;DHT22;904;47.814;11.134;2023-03-17T00:18:33;3.10;77.60
1812;DHT22;904;47.814;11.134;2023-03-17T00:21:08;3.10;78.10
1812;DHT22;904;47.814;11.134;2023-03-17T00:23:48;3.10;77.80
1812;DHT22;904;47.814;11.134;2023-03-17T00:26:24;3.10;77.70
1812;DHT22;904;47.814;11.134;2023-03-17T00:28:57;3.10;78.60
1812;DHT22;904;47.814;11.134;2023-03-17T00:31:33;3.10;79.00
1812;DHT22;904;47.814;11.134;2023-03-17T00:34:01;3.00;79.40
1812;DHT22;904;47.814;11.134;2023-03-17T00:36:34;3.00;79.80
1812;DHT22;904;47.814;11.134;2023-03-17T00:39:11;3.10;80.00
1812;DHT22;904;47.814;11.134;2023-03-17T00:41:46;3.10;79.60
1812;DHT22;904;47.814;11.134;2023-03-17T00:44:23;3.10;79.40
1812;DHT22;904;47.814;11.134;2023-03-17T00:46:51;3.10;78.90
1812;DHT22;904;47.814;11.134;2023-03-17T00:49:20;3.10;79.20
1812;DHT22;904;47.814;11.134;2023-03-17T00:51:53;3.10;79.00
1812;DHT22;904;47.814;11.134;2023-03-17T00:54:30;3.00;79.60
1812;DHT22;904;47.814;11.134;2023-03-17T00:57:03;3.10;79.80
1812;DHT22;904;47.814;11.134;2023-03-17T00:59:39;3.10;80.40
1812;DHT22;904;47.814;11.134;2023-03-17T01:02:09;3.10;79.30
1812;DHT22;904;47.814;11.134;2023-03-17T01:04:44;3.10;78.40
1812;DHT22;904;47.814;11.134;2023-03-17T01:07:17;3.00;77.70
1812;DHT22;904;47.814;11.134;2023-03-17T01:09:54;2.90;78.10
1812;DHT22;904;47.814;11.134;2023-03-17T01:12:28;2.90;77.80
1812;DHT22;904;47.814;11.134;2023-03-17T01:15:01;2.90;78.20
1812;DHT22;904;47.814;11.134;2023-03-17T01:17:33;2.90;78.20
1812;DHT22;904;47.814;11.134;2023-03-17T01:20:21;2.90;77.70
1812;DHT22;904;47.814;11.134;2023-03-17T01:22:53;2.90;78.10
1812;DHT22;904;47.814;11.134;2023-03-17T01:25:35;2.80;77.70
1812;DHT22;904;47.814;11.134;2023-03-17T01:28:09;2.80;77.40
1812;DHT22;904;47.814;11.134;2023-03-17T01:30:42;2.80;77.10
1812;DHT22;904;47.814;11.134;2023-03-17T01:33:10;2.80;77.00
1812;DHT22;904;47.814;11.134;2023-03-17T01:35:50;2.70;77.50
1812;DHT22;904;47.814;11.134;2023-03-17T01:38:21;2.60;78.40
1812;DHT22;904;47.814;11.134;2023-03-17T01:40:54;2.60;78.90
1812;DHT22;904;47.814;11.134;2023-03-17T01:43:46;2.60;79.50
1812;DHT22;904;47.814;11.134;2023-03-17T01:46:22;2.60;80.50
1812;DHT22;904;47.814;11.134;2023-03-17T01:49:08;2.50;80.00
1812;DHT22;904;47.814;11.134;2023-03-17T01:51:46;2.60;80.30
1812;DHT22;904;47.814;11.134;2023-03-17T01:54:36;2.60;81.10
1812;DHT22;904;47.814;11.134;2023-03-17T01:57:17;2.60;80.90
1812;DHT22;904;47.814;11.134;2023-03-17T01:59:49;2.60;81.00
1812;DHT22;904;47.814;11.134;2023-03-17T02:02:24;2.50;80.70
1812;DHT22;904;47.814;11.134;2023-03-17T02:04:56;2.60;81.00
1812;DHT22;904;47.814;11.134;2023-03-17T02:07:30;2.50;81.00
1812;DHT22;904;47.814;11.134;2023-03-17T02:10:17;2.50;80.60
1812;DHT22;904;47.814;11.134;2023-03-17T02:12:56;2.40;81.10
1812;DHT22;904;47.814;11.134;2023-03-17T02:15:42;2.30;81.60
1812;DHT22;904;47.814;11.134;2023-03-17T02:18:13;2.30;82.10
1812;DHT22;904;47.814;11.134;2023-03-17T02:24:06;2.40;82.50
1812;DHT22;904;47.814;11.134;2023-03-17T02:26:43;2.40;82.00
1812;DHT22;904;47.814;11.134;2023-03-17T02:29:18;2.40;80.70
1812;DHT22;904;47.814;11.134;2023-03-17T02:31:49;2.40;81.10
1812;DHT22;904;47.814;11.134;2023-03-17T02:34:22;2.40;81.00
1812;DHT22;904;47.814;11.134;2023-03-17T02:36:55;2.40;80.90
1812;DHT22;904;47.814;11.134;2023-03-17T02:39:25;2.50;81.40
1812;DHT22;904;47.814;11.134;2023-03-17T02:41:57;2.40;81.70
1812;DHT22;904;47.814;11.134;2023-03-17T02:44:40;2.40;81.60
1812;DHT22;904;47.814;11.134;2023-03-17T02:47:08;2.40;81.50
1812;DHT22;904;47.814;11.134;2023-03-17T02:49:53;2.40;81.20
1812;DHT22;904;47.814;11.134;2023-03-17T02:52:25;2.40;81.50
1812;DHT22;904;47.814;11.134;2023-03-17T02:55:00;2.50;81.10
1812;DHT22;904;47.814;11.134;2023-03-17T02:57:44;2.50;80.50
1812;DHT22;904;47.814;11.134;2023-03-17T03:02:53;2.50;81.00
1812;DHT22;904;47.814;11.134;2023-03-17T03:05:26;2.60;81.00
1812;DHT22;904;47.814;11.134;2023-03-17T03:08:06;2.60;79.40
1812;DHT22;904;47.814;11.134;2023-03-17T03:10:38;2.50;78.20
1812;DHT22;904;47.814;11.134;2023-03-17T03:13:12;2.50;78.40
1812;DHT22;904;47.814;11.134;2023-03-17T03:15:44;2.50;77.40
1812;DHT22;904;47.814;11.134;2023-03-17T03:18:27;2.50;76.90
1812;DHT22;904;47.814;11.134;2023-03-17T03:21:00;2.40;76.90
1812;DHT22;904;47.814;11.134;2023-03-17T03:23:39;2.40;76.70
1812;DHT22;904;47.814;11.134;2023-03-17T03:26:26;2.40;77.10
1812;DHT22;904;47.814;11.134;2023-03-17T03:29:01;2.30;78.80
1812;DHT22;904;47.814;11.134;2023-03-17T03:31:29;2.30;78.70
1812;DHT22;904;47.814;11.134;2023-03-17T03:34:01;2.20;79.00
1812;DHT22;904;47.814;11.134;2023-03-17T03:36:29;2.30;79.60
1812;DHT22;904;47.814;11.134;2023-03-17T03:39:05;2.20;79.80
1812;DHT22;904;47.814;11.134;2023-03-17T03:41:47;2.20;79.40
1812;DHT22;904;47.814;11.134;2023-03-17T03:44:29;2.20;80.00
1812;DHT22;904;47.814;11.134;2023-03-17T03:47:06;2.20;81.20
1812;DHT22;904;47.814;11.134;2023-03-17T03:49:52;2.30;81.80
1812;DHT22;904;47.814;11.134;2023-03-17T03:52:26;2.30;81.80
1812;DHT22;904;47.814;11.134;2023-03-17T03:54:56;2.40;81.90
1812;DHT22;904;47.814;11.134;2023-03-17T03:57:29;2.30;82.60
1812;DHT22;904;47.814;11.134;2023-03-17T03:59:59;2.40;82.70
1812;DHT22;904;47.814;11.134;2023-03-17T04:02:42;2.50;82.70
1812;DHT22;904;47.814;11.134;2023-03-17T04:05:11;2.50;82.50
1812;DHT22;904;47.814;11.134;2023-03-17T04:07:41;2.50;82.00
1812;DHT22;904;47.814;11.134;2023-03-17T04:10:14;2.60;82.20
1812;DHT22;904;47.814;11.134;2023-03-17T04:12:51;2.60;81.90
1812;DHT22;904;47.814;11.134;2023-03-17T04:18:00;2.70;80.70
1812;DHT22;904;47.814;11.134;2023-03-17T04:20:40;2.70;80.80
1812;DHT22;904;47.814;11.134;2023-03-17T04:23:15;2.70;80.00
1812;DHT22;904;47.814;11.134;2023-03-17T04:25:44;2.70;79.80
1812;DHT22;904;47.814;11.134;2023-03-17T04:28:13;2.70;79.10
1812;DHT22;904;47.814;11.134;2023-03-17T04:30:50;2.70;78.40
1812;DHT22;904;47.814;11.134;2023-03-17T04:33:26;2.60;78.00
1812;DHT22;904;47.814;11.134;2023-03-17T04:35:55;2.50;78.90
1812;DHT22;904;47.814;11.134;2023-03-17T04:38:32;2.50;79.40
1812;DHT22;904;47.814;11.134;2023-03-17T04:41:13;2.50;79.60
1812;DHT22;904;47.814;11.134;2023-03-17T04:43:53;2.50;79.70
1812;DHT22;904;47.814;11.134;2023-03-17T04:46:21;2.50;80.00
1812;DHT22;904;47.814;11.134;2023-03-17T04:49:01;2.50;80.00
1812;DHT22;904;47.814;11.134;2023-03-17T04:51:33;2.50;80.20
1812;DHT22;904;47.814;11.134;2023-03-17T04:54:08;2.50;80.40
1812;DHT22;904;47.814;11.134;2023-03-17T04:56:38;2.40;80.70
1812;DHT22;904;47.814;11.134;2023-03-17T04:59:12;2.40;81.10
1812;DHT22;904;47.814;11.134;2023-03-17T05:01:55;2.40;81.30
1812;DHT22;904;47.814;11.134;2023-03-17T05:04:30;2.40;81.50
1812;DHT22;904;47.814;11.134;2023-03-17T05:07:04;2.40;82.60
1812;DHT22;904;47.814;11.134;2023-03-17T05:09:34;2.30;82.50
1812;DHT22;904;47.814;11.134;2023-03-17T05:12:12;2.30;83.00
1812;DHT22;904;47.814;11.134;2023-03-17T05:14:44;2.30;83.30
1812;DHT22;904;47.814;11.134;2023-03-17T05:17:17;2.30;83.10
1812;DHT22;904;47.814;11.134;2023-03-17T05:19:47;2.30;82.60
1812;DHT22;904;47.814;11.134;2023-03-17T05:22:17;2.30;82.40
1812;DHT22;904;47.814;11.134;2023-03-17T05:24:53;2.20;82.50
1812;DHT22;904;47.814;11.134;2023-03-17T05:27:26;2.20;82.80
1812;DHT22;904;47.814;11.134;2023-03-17T05:29:59;2.20;82.60
1812;DHT22;904;47.814;11.134;2023-03-17T05:32:35;2.20;82.90
1812;DHT22;904;47.814;11.134;2023-03-17T05:35:09;2.20;83.30
1812;DHT22;904;47.814;11.134;2023-03-17T05:37:50;2.30;83.20
1812;DHT22;904;47.814;11.134;2023-03-17T05:40:23;2.40;83.00
1812;DHT22;904;47.814;11.134;2023-03-17T05:43:00;2.40;82.60
1812;DHT22;904;47.814;11.134;2023-03-17T05:45:52;2.40;82.60
1812;DHT22;904;47.814;11.134;2023-03-17T05:48:24;2.40;83.20
1812;DHT22;904;47.814;11.134;2023-03-17T05:51:02;2.40;83.30
1812;DHT22;904;47.814;11.134;2023-03-17T05:53:39;2.40;83.70
1812;DHT22;904;47.814;11.134;2023-03-17T05:56:10;2.40;84.00
1812;DHT22;904;47.814;11.134;2023-03-17T05:58:53;2.40;84.10
1812;DHT22;904;47.814;11.134;2023-03-17T06:01:28;2.50;83.90
1812;DHT22;904;47.814;11.134;2023-03-17T06:04:01;2.60;84.20
1812;DHT22;904;47.814;11.134;2023-03-17T06:06:33;2.60;84.00
1812;DHT22;904;47.814;11.134;2023-03-17T06:09:06;2.70;83.50
1812;DHT22;904;47.814;11.134;2023-03-17T06:11:38;2.80;83.00
1812;DHT22;904;47.814;11.134;2023-03-17T06:14:11;2.90;83.50
1812;DHT22;904;47.814;11.134;2023-03-17T06:16:56;3.00;84.10
1812;DHT22;904;47.814;11.134;2023-03-17T06:19:24;3.10;84.20
1812;DHT22;904;47.814;11.134;2023-03-17T06:22:00;3.30;84.20
1812;DHT22;904;47.814;11.134;2023-03-17T06:24:28;3.40;83.60
1812;DHT22;904;47.814;11.134;2023-03-17T06:26:58;3.60;83.00
1812;DHT22;904;47.814;11.134;2023-03-17T06:29:33;3.60;81.80
1812;DHT22;904;47.814;11.134;2023-03-17T06:32:08;3.80;80.80
1812;DHT22;904;47.814;11.134;2023-03-17T06:34:40;3.90;79.90
1812;DHT22;904;47.814;11.134;2023-03-17T06:37:18;4.00;79.20
1812;DHT22;904;47.814;11.134;2023-03-17T06:39:51;4.10;78.30
1812;DHT22;904;47.814;11.134;2023-03-17T06:42:23;4.10;77.60
1812;DHT22;904;47.814;11.134;2023-03-17T06:44:50;4.10;77.30
1812;DHT22;904;47.814;11.134;2023-03-17T06:47:19;4.20;77.50
1812;DHT22;904;47.814;11.134;2023-03-17T06:49:46;4.20;77.40
1812;DHT22;904;47.814;11.134;2023-03-17T06:52:14;4.30;77.30
1812;DHT22;904;47.814;11.134;2023-03-17T06:54:41;4.50;77.40
1812;DHT22;904;47.814;11.134;2023-03-17T06:57:17;4.60;77.00
1812;DHT22;904;47.814;11.134;2023-03-17T06:59:47;4.80;76.80
1812;DHT22;904;47.814;11.134;2023-03-17T07:02:20;5.10;76.30
1812;DHT22;904;47.814;11.134;2023-03-17T07:04:51;5.30;75.60
1812;DHT22;904;47.814;11.134;2023-03-17T07:07:20;5.70;75.20
1812;DHT22;904;47.814;11.134;2023-03-17T07:09:49;6.20;74.40
1812;DHT22;904;47.814;11.134;2023-03-17T07:12:17;6.90;72.60
1812;DHT22;904;47.814;11.134;2023-03-17T07:14:47;7.60;69.10
1812;DHT22;904;47.814;11.134;2023-03-17T07:17:15;8.60;64.80
1812;DHT22;904;47.814;11.134;2023-03-17T07:19:49;10.30;57.70
1812;DHT22;904;47.814;11.134;2023-03-17T07:22:20;12.30;52.20
1812;DHT22;904;47.814;11.134;2023-03-17T07:24:49;14.10;47.00
1812;DHT22;904;47.814;11.134;2023-03-17T07:27:17;15.70;41.60
1812;DHT22;904;47.814;11.134;2023-03-17T07:29:48;17.60;37.80
1812;DHT22;904;47.814;11.134;2023-03-17T07:32:15;19.50;34.30
1812;DHT22;904;47.814;11.134;2023-03-17T07:34:47;21.40;30.80
1812;DHT22;904;47.814;11.134;2023-03-17T07:37:31;23.30;28.00
1812;DHT22;904;47.814;11.134;2023-03-17T07:39:58;24.40;26.00
1812;DHT22;904;47.814;11.134;2023-03-17T07:42:30;25.10;24.90
1812;DHT22;904;47.814;11.134;2023-03-17T07:44:58;26.30;23.60
1812;DHT22;904;47.814;11.134;2023-03-17T07:47:27;27.10;22.70
1812;DHT22;904;47.814;11.134;2023-03-17T07:49:55;27.00;20.60
1812;DHT22;904;47.814;11.134;2023-03-17T07:52:27;27.00;21.00
1812;DHT22;904;47.814;11.134;2023-03-17T07:55:01;27.40;20.60
1812;DHT22;904;47.814;11.134;2023-03-17T07:57:29;27.40;20.40
1812;DHT22;904;47.814;11.134;2023-03-17T07:59:56;27.30;20.20
1812;DHT22;904;47.814;11.134;2023-03-17T08:02:24;27.30;19.80
1812;DHT22;904;47.814;11.134;2023-03-17T08:04:52;27.50;19.40
1812;DHT22;904;47.814;11.134;2023-03-17T08:07:19;28.60;19.60
1812;DHT22;904;47.814;11.134;2023-03-17T08:09:47;30.50;18.30
1812;DHT22;904;47.814;11.134;2023-03-17T08:12:16;32.40;17.00
1812;DHT22;904;47.814;11.134;2023-03-17T08:14:43;33.70;15.70
1812;DHT22;904;47.814;11.134;2023-03-17T08:17:11;34.40;14.70
1812;DHT22;904;47.814;11.134;2023-03-17T08:19:38;34.70;15.10
1812;DHT22;904;47.814;11.134;2023-03-17T08:22:06;35.50;14.00
1812;DHT22;904;47.814;11.134;2023-03-17T08:24:34;36.00;13.00
1812;DHT22;904;47.814;11.134;2023-03-17T08:27:02;36.30;12.50
1812;DHT22;904;47.814;11.134;2023-03-17T08:29:31;36.60;12.30
1812;DHT22;904;47.814;11.134;2023-03-17T08:31:58;37.30;11.70
1812;DHT22;904;47.814;11.134;2023-03-17T08:34:26;38.50;11.40
1812;DHT22;904;47.814;11.134;2023-03-17T08:36:53;39.40;10.50
1812;DHT22;904;47.814;11.134;2023-03-17T08:39:21;39.90;10.20
1812;DHT22;904;47.814;11.134;2023-03-17T08:41:49;40.40;9.50
1812;DHT22;904;47.814;11.134;2023-03-17T08:44:17;40.90;9.50
1812;DHT22;904;47.814;11.134;2023-03-17T08:46:46;42.00;9.30
1812;DHT22;904;47.814;11.134;2023-03-17T08:51:45;42.90;9.00
1812;DHT22;904;47.814;11.134;2023-03-17T08:54:14;43.80;7.30
1812;DHT22;904;47.814;11.134;2023-03-17T08:56:42;43.40;7.30
1812;DHT22;904;47.814;11.134;2023-03-17T08:59:10;43.10;7.30
1812;DHT22;904;47.814;11.134;2023-03-17T09:01:37;43.10;6.90
1812;DHT22;904;47.814;11.134;2023-03-17T09:04:06;43.40;7.10
1812;DHT22;904;47.814;11.134;2023-03-17T09:06:33;43.90;7.10
1812;DHT22;904;47.814;11.134;2023-03-17T09:09:01;44.40;7.20
1812;DHT22;904;47.814;11.134;2023-03-17T09:11:30;44.70;6.50
1812;DHT22;904;47.814;11.134;2023-03-17T09:13:58;44.90;6.30
1812;DHT22;904;47.814;11.134;2023-03-17T09:16:28;45.20;6.00
1812;DHT22;904;47.814;11.134;2023-03-17T09:18:59;45.30;6.30
1812;DHT22;904;47.814;11.134;2023-03-17T09:21:27;45.70;6.50
1812;DHT22;904;47.814;11.134;2023-03-17T09:23:55;45.90;5.80
1812;DHT22;904;47.814;11.134;2023-03-17T09:26:22;46.20;6.20
1812;DHT22;904;47.814;11.134;2023-03-17T09:28:51;46.30;6.20
1812;DHT22;904;47.814;11.134;2023-03-17T09:31:19;46.40;6.50
1812;DHT22;904;47.814;11.134;2023-03-17T09:33:51;47.30;6.60
1812;DHT22;904;47.814;11.134;2023-03-17T09:36:19;48.40;6.30
1812;DHT22;904;47.814;11.134;2023-03-17T09:38:48;48.80;6.10
1812;DHT22;904;47.814;11.134;2023-03-17T09:44:26;49.30;5.60
1812;DHT22;904;47.814;11.134;2023-03-17T09:47:03;49.80;4.90
1812;DHT22;904;47.814;11.134;2023-03-17T09:49:38;49.90;4.80
1812;DHT22;904;47.814;11.134;2023-03-17T09:52:11;49.80;4.40
1812;DHT22;904;47.814;11.134;2023-03-17T09:54:42;49.90;4.60
1812;DHT22;904;47.814;11.134;2023-03-17T09:57:14;49.60;4.60
1812;DHT22;904;47.814;11.134;2023-03-17T09:59:44;49.00;4.60
1812;DHT22;904;47.814;11.134;2023-03-17T10:02:17;48.20;4.80
1812;DHT22;904;47.814;11.134;2023-03-17T10:04:48;47.40;4.50
1812;DHT22;904;47.814;11.134;2023-03-17T10:07:18;46.30;5.20
1812;DHT22;904;47.814;11.134;2023-03-17T10:09:56;45.30;5.00
1812;DHT22;904;47.814;11.134;2023-03-17T10:12:35;44.00;5.50
1812;DHT22;904;47.814;11.134;2023-03-17T10:15:12;43.00;5.80
1812;DHT22;904;47.814;11.134;2023-03-17T10:17:40;42.40;5.90
1812;DHT22;904;47.814;11.134;2023-03-17T10:20:13;42.10;6.30
1812;DHT22;904;47.814;11.134;2023-03-17T10:22:44;41.80;6.30
1812;DHT22;904;47.814;11.134;2023-03-17T10:25:17;41.50;6.90
1812;DHT22;904;47.814;11.134;2023-03-17T10:27:49;41.20;6.80
1812;DHT22;904;47.814;11.134;2023-03-17T10:30:20;41.20;7.40
1812;DHT22;904;47.814;11.134;2023-03-17T10:32:50;41.00;7.40
1812;DHT22;904;47.814;11.134;2023-03-17T10:35:19;40.70;7.20
1812;DHT22;904;47.814;11.134;2023-03-17T10:37:47;40.40;6.80
1812;DHT22;904;47.814;11.134;2023-03-17T10:40:24;40.30;7.50
1812;DHT22;904;47.814;11.134;2023-03-17T10:42:54;40.30;7.90
1812;DHT22;904;47.814;11.134;2023-03-17T10:45:27;40.70;7.90
1812;DHT22;904;47.814;11.134;2023-03-17T10:47:57;41.20;7.30
1812;DHT22;904;47.814;11.134;2023-03-17T10:50:26;41.40;7.40
1812;DHT22;904;47.814;11.134;2023-03-17T10:52:57;41.80;7.00
1812;DHT22;904;47.814;11.134;2023-03-17T10:55:28;42.70;8.10
1812;DHT22;904;47.814;11.134;2023-03-17T10:58:02;43.90;6.90
1812;DHT22;904;47.814;11.134;2023-03-17T11:00:32;44.30;6.30
1812;DHT22;904;47.814;11.134;2023-03-17T11:03:03;43.90;6.60
1812;DHT22;904;47.814;11.134;2023-03-17T11:05:54;43.00;6.60
1812;DHT22;904;47.814;11.134;2023-03-17T11:08:21;42.30;7.40
1812;DHT22;904;47.814;11.134;2023-03-17T11:10:55;42.70;7.30
1812;DHT22;904;47.814;11.134;2023-03-17T11:13:28;43.20;6.50
1812;DHT22;904;47.814;11.134;2023-03-17T11:16:15;43.70;6.20
1812;DHT22;904;47.814;11.134;2023-03-17T11:18:44;43.90;6.50
1812;DHT22;904;47.814;11.134;2023-03-17T11:21:16;44.00;6.00
1812;DHT22;904;47.814;11.134;2023-03-17T11:23:47;43.50;6.00
1812;DHT22;904;47.814;11.134;2023-03-17T11:26:30;43.10;6.30
1812;DHT22;904;47.814;11.134;2023-03-17T11:29:16;42.40;6.20
1812;DHT22;904;47.814;11.134;2023-03-17T11:31:53;41.50;7.30
1812;DHT22;904;47.814;11.134;2023-03-17T11:34:30;40.50;7.80
1812;DHT22;904;47.814;11.134;2023-03-17T11:37:04;39.40;8.00
1812;DHT22;904;47.814;11.134;2023-03-17T11:39:43;38.00;7.70
1812;DHT22;904;47.814;11.134;2023-03-17T11:42:19;36.40;8.20
1812;DHT22;904;47.814;11.134;2023-03-17T11:45:12;35.20;7.90
1812;DHT22;904;47.814;11.134;2023-03-17T11:50:50;33.00;9.90
1812;DHT22;904;47.814;11.134;2023-03-17T11:53:39;32.30;10.20
1812;DHT22;904;47.814;11.134;2023-03-17T11:56:15;31.90;9.20
1812;DHT22;904;47.814;11.134;2023-03-17T11:58:48;31.60;10.20
1812;DHT22;904;47.814;11.134;2023-03-17T12:01:20;31.70;9.60
1812;DHT22;904;47.814;11.134;2023-03-17T12:03:58;31.90;11.30
1812;DHT22;904;47.814;11.134;2023-03-17T12:06:31;32.40;10.10
1812;DHT22;904;47.814;11.134;2023-03-17T12:09:04;32.50;9.80
1812;DHT22;904;47.814;11.134;2023-03-17T12:11:35;32.80;10.00
1812;DHT22;904;47.814;11.134;2023-03-17T12:14:13;33.40;10.40
1812;DHT22;904;47.814;11.134;2023-03-17T12:16:52;34.20;9.80
1812;DHT22;904;47.814;11.134;2023-03-17T12:19:26;35.00;9.30
1812;DHT22;904;47.814;11.134;2023-03-17T12:21:57;35.50;9.00
1812;DHT22;904;47.814;11.134;2023-03-17T12:24:32;36.30;8.90
1812;DHT22;904;47.814;11.134;2023-03-17T12:27:04;36.90;9.00
1812;DHT22;904;47.814;11.134;2023-03-17T12:29:40;37.10;9.00
1812;DHT22;904;47.814;11.134;2023-03-17T12:32:17;36.40;9.00
1812;DHT22;904;47.814;11.134;2023-03-17T12:34:49;35.60;9.60
1812;DHT22;904;47.814;11.134;2023-03-17T12:37:20;35.30;10.40
1812;DHT22;904;47.814;11.134;2023-03-17T12:39:53;35.30;10.70
1812;DHT22;904;47.814;11.134;2023-03-17T12:42:36;35.90;10.90
1812;DHT22;904;47.814;11.134;2023-03-17T12:45:34;36.50;10.60
1812;DHT22;904;47.814;11.134;2023-03-17T12:48:26;36.30;9.60
1812;DHT22;904;47.814;11.134;2023-03-17T12:53:49;35.10;10.30
1812;DHT22;904;47.814;11.134;2023-03-17T12:56:20;34.60;11.20
1812;DHT22;904;47.814;11.134;2023-03-17T12:58:51;34.20;11.30
1812;DHT22;904;47.814;11.134;2023-03-17T13:01:29;33.80;11.20
1812;DHT22;904;47.814;11.134;2023-03-17T13:04:08;33.70;11.70
1812;DHT22;904;47.814;11.134;2023-03-17T13:06:43;33.50;12.40
1812;DHT22;904;47.814;11.134;2023-03-17T13:15:53;31.80;14.30
1812;DHT22;904;47.814;11.134;2023-03-17T13:18:44;30.90;15.30
1812;DHT22;904;47.814;11.134;2023-03-17T13:21:13;30.30;15.40
1812;DHT22;904;47.814;11.134;2023-03-17T13:23:44;29.60;16.10
1812;DHT22;904;47.814;11.134;2023-03-17T13:26:15;28.90;16.90
1812;DHT22;904;47.814;11.134;2023-03-17T13:28:46;28.50;17.50
1812;DHT22;904;47.814;11.134;2023-03-17T13:31:30;28.10;17.90
1812;DHT22;904;47.814;11.134;2023-03-17T13:34:11;27.70;18.40
1812;DHT22;904;47.814;11.134;2023-03-17T13:36:46;27.30;19.50
1812;DHT22;904;47.814;11.134;2023-03-17T13:39:46;27.00;19.50
1812;DHT22;904;47.814;11.134;2023-03-17T13:42:26;26.70;20.10
1812;DHT22;904;47.814;11.134;2023-03-17T13:45:12;26.30;20.60
1812;DHT22;904;47.814;11.134;2023-03-17T13:47:42;26.00;20.20
1812;DHT22;904;47.814;11.134;2023-03-17T13:50:14;25.80;20.20
1812;DHT22;904;47.814;11.134;2023-03-17T13:52:46;25.50;21.20
1812;DHT22;904;47.814;11.134;2023-03-17T13:55:35;25.30;21.00
1812;DHT22;904;47.814;11.134;2023-03-17T13:58:25;25.00;21.50
1812;DHT22;904;47.814;11.134;2023-03-17T14:01:02;24.80;21.70
1812;DHT22;904;47.814;11.134;2023-03-17T14:03:37;24.50;21.70
1812;DHT22;904;47.814;11.134;2023-03-17T14:06:09;24.30;22.10
1812;DHT22;904;47.814;11.134;2023-03-17T14:08:45;24.10;22.00
1812;DHT22;904;47.814;11.134;2023-03-17T14:11:26;23.90;22.90
1812;DHT22;904;47.814;11.134;2023-03-17T14:14:13;23.60;22.90
1812;DHT22;904;47.814;11.134;2023-03-17T14:16:44;23.50;22.90
1812;DHT22;904;47.814;11.134;2023-03-17T14:19:18;23.30;23.20
1812;DHT22;904;47.814;11.134;2023-03-17T14:21:48;23.20;23.50
1812;DHT22;904;47.814;11.134;2023-03-17T14:24:21;23.10;23.50
1812;DHT22;904;47.814;11.134;2023-03-17T14:26:50;23.00;23.70
1812;DHT22;904;47.814;11.134;2023-03-17T14:29:20;23.00;23.80
1812;DHT22;904;47.814;11.134;2023-03-17T14:31:51;23.00;24.20
1812;DHT22;904;47.814;11.134;2023-03-17T14:34:21;22.90;24.20
1812;DHT22;904;47.814;11.134;2023-03-17T14:36:50;22.90;24.80
1812;DHT22;904;47.814;11.134;2023-03-17T14:39:21;22.80;25.10
1812;DHT22;904;47.814;11.134;2023-03-17T14:42:04;22.80;25.70
1812;DHT22;904;47.814;11.134;2023-03-17T14:44:36;22.70;25.70
1812;DHT22;904;47.814;11.134;2023-03-17T14:47:06;22.60;25.70
1812;DHT22;904;47.814;11.134;2023-03-17T14:49:37;22.50;25.60
1812;DHT22;904;47.814;11.134;2023-03-17T14:52:18;22.50;25.10
1812;DHT22;904;47.814;11.134;2023-03-17T14:54:49;22.30;25.20
1812;DHT22;904;47.814;11.134;2023-03-17T14:57:21;22.20;25.10
1812;DHT22;904;47.814;11.134;2023-03-17T14:59:57;22.00;25.30
1812;DHT22;904;47.814;11.134;2023-03-17T15:02:30;21.70;25.90
1812;DHT22;904;47.814;11.134;2023-03-17T15:05:03;21.50;26.20
1812;DHT22;904;47.814;11.134;2023-03-17T15:07:36;21.40;26.60
1812;DHT22;904;47.814;11.134;2023-03-17T15:10:05;21.20;26.80
1812;DHT22;904;47.814;11.134;2023-03-17T15:12:33;21.00;27.00
1812;DHT22;904;47.814;11.134;2023-03-17T15:15:03;20.80;27.90
1812;DHT22;904;47.814;11.134;2023-03-17T15:17:34;20.70;28.50
1812;DHT22;904;47.814;11.134;2023-03-17T15:20:11;20.50;28.70
1812;DHT22;904;47.814;11.134;2023-03-17T15:22:45;20.40;29.50
1812;DHT22;904;47.814;11.134;2023-03-17T15:25:18;20.30;29.90
1812;DHT22;904;47.814;11.134;2023-03-17T15:27:46;20.20;29.60
1812;DHT22;904;47.814;11.134;2023-03-17T15:30:15;20.20;29.30
1812;DHT22;904;47.814;11.134;2023-03-17T15:32:42;20.10;29.30
1812;DHT22;904;47.814;11.134;2023-03-17T15:35:11;20.00;29.70
1812;DHT22;904;47.814;11.134;2023-03-17T15:37:39;20.00;30.00
1812;DHT22;904;47.814;11.134;2023-03-17T15:40:09;19.90;30.00
1812;DHT22;904;47.814;11.134;2023-03-17T15:42:38;19.80;30.30
1812;DHT22;904;47.814;11.134;2023-03-17T15:45:06;19.70;30.70
1812;DHT22;904;47.814;11.134;2023-03-17T15:47:35;19.60;31.80
1812;DHT22;904;47.814;11.134;2023-03-17T15:50:16;19.60;31.00
1812;DHT22;904;47.814;11.134;2023-03-17T15:52:49;19.40;31.30
1812;DHT22;904;47.814;11.134;2023-03-17T15:55:22;19.30;31.10
1812;DHT22;904;47.814;11.134;2023-03-17T15:57:54;19.20;31.00
1812;DHT22;904;47.814;11.134;2023-03-17T16:00:24;19.20;31.40
1812;DHT22;904;47.814;11.134;2023-03-17T16:02:55;19.10;31.20
1812;DHT22;904;47.814;11.134;2023-03-17T16:05:25;19.00;31.60
1812;DHT22;904;47.814;11.134;2023-03-17T16:07:53;18.80;31.90
1812;DHT22;904;47.814;11.134;2023-03-17T16:10:24;18.80;32.30
1812;DHT22;904;47.814;11.134;2023-03-17T16:12:51;18.60;32.40
1812;DHT22;904;47.814;11.134;2023-03-17T16:15:20;18.50;32.60
1812;DHT22;904;47.814;11.134;2023-03-17T16:17:49;18.40;32.90
1812;DHT22;904;47.814;11.134;2023-03-17T16:20:22;18.30;33.10
1812;DHT22;904;47.814;11.134;2023-03-17T16:22:55;18.20;33.10
1812;DHT22;904;47.814;11.134;2023-03-17T16:25:27;18.10;33.00
1812;DHT22;904;47.814;11.134;2023-03-17T16:27:59;18.00;33.30
1812;DHT22;904;47.814;11.134;2023-03-17T16:30:33;17.90;33.40
1812;DHT22;904;47.814;11.134;2023-03-17T16:33:11;17.80;34.20
1812;DHT22;904;47.814;11.134;2023-03-17T16:35:40;17.70;34.80
1812;DHT22;904;47.814;11.134;2023-03-17T16:38:10;17.60;35.60
1812;DHT22;904;47.814;11.134;2023-03-17T16:40:39;17.50;35.70
1812;DHT22;904;47.814;11.134;2023-03-17T16:43:17;17.40;36.10
1812;DHT22;904;47.814;11.134;2023-03-17T16:45:45;17.20;36.50
1812;DHT22;904;47.814;11.134;2023-03-17T16:48:13;17.20;36.50
1812;DHT22;904;47.814;11.134;2023-03-17T16:50:41;17.10;36.30
1812;DHT22;904;47.814;11.134;2023-03-17T16:53:08;17.00;37.30
1812;DHT22;904;47.814;11.134;2023-03-17T16:55:36;16.90;38.50
1812;DHT22;904;47.814;11.134;2023-03-17T16:58:13;16.80;39.20
1812;DHT22;904;47.814;11.134;2023-03-17T17:00:50;16.60;39.10
1812;DHT22;904;47.814;11.134;2023-03-17T17:03:18;16.50;38.90
1812;DHT22;904;47.814;11.134;2023-03-17T17:05:51;16.40;39.20
1812;DHT22;904;47.814;11.134;2023-03-17T17:08:18;16.30;39.50
1812;DHT22;904;47.814;11.134;2023-03-17T17:10:50;16.30;39.70
1812;DHT22;904;47.814;11.134;2023-03-17T17:13:22;16.20;39.70
1812;DHT22;904;47.814;11.134;2023-03-17T17:15:49;16.10;39.50
1812;DHT22;904;47.814;11.134;2023-03-17T17:18:19;16.00;39.90